KORD

Chicago O'hare International Airport

Chicago, Illinois, USA
METAR KORD 181551Z 25007KT 10SM CLR 11/M06 A3052 RMK AO2 SLP339 T01061056
Observed Flight Rules
Oct-18 @ 15:51 UTC (53 minutes ago) Visual Flight Rules
Wind Visibility Clouds
250° at 7 knots 10 miles
  • Clear skies
Temperatures Readings
Current 11°C / 52°F
Dewpoint -6°C / 21°F
Humidity 30%
Altimeter 30.52" Hg
Pressure 1033.9 hPa
Elevation 200
METAR KORD 181551Z 25007KT 10SM CLR 11/M06 A3052 RMK AO2 SLP339 T01061056
Observed Flight Rules
Oct-18 @ 15:51 UTC
(53 minutes ago)
VFR
Wind Visibility
250° at 7 knots 10 miles
Clouds
  • Clear skies
Temperature Dewpoint
11°C / 52°F -6°C / 21°F
Humidity Altimeter Pressure
30% 30.52" Hg 1033.9 hPa